createdAt,value
2017-08-19T00:00:56.000Z,0
2017-08-19T00:01:55.672Z,0
2017-08-19T00:02:55.968Z,0
2017-08-19T00:03:55.959Z,0
2017-08-19T00:04:55.631Z,0
2017-08-19T00:05:55.945Z,0
2017-08-19T00:06:55.917Z,0
2017-08-19T00:07:55.596Z,0
2017-08-19T00:08:55.888Z,0
2017-08-19T00:09:55.884Z,0
2017-08-19T00:10:55.553Z,0
2017-08-19T00:11:55.857Z,0
2017-08-19T00:12:55.216Z,0
2017-08-19T00:13:56.129Z,0
2017-08-19T00:14:55.815Z,0
2017-08-19T00:15:55.793Z,0
2017-08-19T00:16:55.470Z,0
2017-08-19T00:17:55.778Z,0
2017-08-19T00:18:56.077Z,0
2017-08-19T00:19:55.745Z,0
2017-08-19T00:20:55.105Z,0
2017-08-19T00:21:56.039Z,0
2017-08-19T00:22:55.702Z,0
2017-08-19T00:23:55.401Z,0
2017-08-19T00:24:56.009Z,0
2017-08-19T00:25:55.978Z,0
2017-08-19T00:26:55.339Z,0
2017-08-19T00:27:55.322Z,0
2017-08-19T00:28:55.638Z,0
2017-08-19T00:29:55.925Z,0
2017-08-19T00:30:55.278Z,0
2017-08-19T00:31:55.267Z,0
2017-08-19T00:32:55.580Z,0
2017-08-19T00:33:55.255Z,0
2017-08-19T00:34:55.229Z,0
2017-08-19T00:35:54.896Z,0
2017-08-19T00:36:55.826Z,0
2017-08-19T00:37:54.882Z,0
2017-08-19T00:38:55.503Z,0
2017-08-19T00:39:55.468Z,0
2017-08-19T00:40:55.458Z,0
2017-08-19T00:41:55.444Z,0
2017-08-19T00:42:55.119Z,0
2017-08-19T00:43:54.787Z,0
2017-08-19T00:44:55.087Z,0
2017-08-19T00:45:55.385Z,0
2017-08-19T00:46:55.370Z,0
2017-08-19T00:47:55.050Z,0
2017-08-19T00:48:55.359Z,0
2017-08-19T00:49:55.351Z,0
2017-08-19T00:50:55.004Z,0
2017-08-19T00:51:55.312Z,0
2017-08-19T00:52:55.206Z,0
2017-08-19T00:53:55.274Z,0
2017-08-19T00:54:54.669Z,0
2017-08-19T00:55:55.248Z,0
2017-08-19T00:56:55.551Z,0
2017-08-19T00:57:55.219Z,0
2017-08-19T00:58:55.210Z,0
2017-08-19T00:59:54.886Z,0
2017-08-19T01:00:54.874Z,0
2017-08-19T01:01:55.162Z,0
2017-08-19T01:02:54.529Z,0
2017-08-19T01:03:54.513Z,0
2017-08-19T01:04:55.438Z,0
2017-08-19T01:05:54.798Z,0
2017-08-19T01:06:55.114Z,0
2017-08-19T01:07:55.084Z,0
2017-08-19T01:08:54.764Z,0
2017-08-19T01:09:55.377Z,0
2017-08-19T01:10:55.354Z,0
2017-08-19T01:11:55.032Z,0
2017-08-19T01:12:54.707Z,0
2017-08-19T01:13:54.684Z,0
2017-08-19T01:14:55.330Z,0
2017-08-19T01:15:54.974Z,0
2017-08-19T01:16:54.963Z,0
2017-08-19T01:17:54.949Z,0
2017-08-19T01:18:55.239Z,0
2017-08-19T01:19:55.231Z,0
2017-08-19T01:20:54.911Z,0
2017-08-19T01:21:54.263Z,0
2017-08-19T01:22:54.879Z,0
2017-08-19T01:23:54.875Z,0
2017-08-19T01:24:54.850Z,0
2017-08-19T01:25:55.176Z,0
2017-08-19T01:26:55.135Z,0
2017-08-19T01:27:54.500Z,0
2017-08-19T01:28:54.795Z,0
2017-08-19T01:29:54.787Z,0
2017-08-19T01:30:54.148Z,0
2017-08-19T01:31:55.068Z,0
2017-08-19T01:32:55.049Z,0
2017-08-19T01:33:54.727Z,0
2017-08-19T01:34:54.721Z,0
2017-08-19T01:35:54.707Z,0
2017-08-19T01:36:54.726Z,0
2017-08-19T01:37:54.675Z,0
2017-08-19T01:38:54.651Z,0
2017-08-19T01:39:54.957Z,0
2017-08-19T01:40:54.314Z,0
2017-08-19T01:41:54.305Z,0
2017-08-19T01:42:54.619Z,0
2017-08-19T01:43:54.279Z,0
2017-08-19T01:44:54.573Z,0
2017-08-19T01:45:53.926Z,0
2017-08-19T01:46:54.561Z,0
2017-08-19T01:47:54.544Z,0
2017-08-19T01:48:54.402Z,0
2017-08-19T01:49:54.194Z,0
2017-08-19T01:50:54.804Z,0
2017-08-19T01:51:53.850Z,0
2017-08-19T01:52:54.460Z,0
2017-08-19T01:53:54.148Z,0
2017-08-19T01:54:54.739Z,0
2017-08-19T01:55:54.418Z,0
2017-08-19T01:56:54.094Z,0
2017-08-19T01:57:54.079Z,0
2017-08-19T01:58:53.756Z,0
2017-08-19T01:59:53.741Z,0
2017-08-19T02:00:54.349Z,0
2017-08-19T02:01:54.646Z,0
2017-08-19T02:02:54.374Z,0
2017-08-19T02:03:53.794Z,0
2017-08-19T02:04:53.686Z,0
2017-08-19T02:05:53.971Z,0
2017-08-19T02:06:54.260Z,0
2017-08-19T02:07:54.244Z,0
2017-08-19T02:08:54.234Z,0
2017-08-19T02:09:54.227Z,0
2017-08-19T02:10:54.200Z,0
2017-08-19T02:11:54.503Z,0
2017-08-19T02:12:53.870Z,0
2017-08-19T02:13:53.878Z,0
2017-08-19T02:14:53.839Z,0
2017-08-19T02:15:53.841Z,0
2017-08-19T02:16:53.812Z,0
2017-08-19T02:17:53.797Z,0
2017-08-19T02:18:54.091Z,0
2017-08-19T02:19:53.470Z,0
2017-08-19T02:20:54.063Z,0
2017-08-19T02:21:53.109Z,0
2017-08-19T02:22:54.040Z,0
2017-08-19T02:23:54.030Z,0
2017-08-19T02:24:54.007Z,0
2017-08-19T02:25:53.996Z,0
2017-08-19T02:26:53.983Z,0
2017-08-19T02:27:53.968Z,0
2017-08-19T02:28:53.951Z,0
2017-08-19T02:29:53.991Z,0
2017-08-19T02:30:53.617Z,0
2017-08-19T02:31:54.227Z,0
2017-08-19T02:32:53.583Z,0
2017-08-19T02:33:53.565Z,0
2017-08-19T02:34:53.556Z,0
2017-08-19T02:35:53.854Z,0
2017-08-19T02:36:53.845Z,0
2017-08-19T02:37:53.831Z,0
2017-08-19T02:38:53.813Z,0
2017-08-19T02:39:53.171Z,0
2017-08-19T02:40:53.524Z,0
2017-08-19T02:41:53.457Z,0
2017-08-19T02:42:53.456Z,0
2017-08-19T02:43:53.432Z,0
2017-08-19T02:44:53.143Z,0
2017-08-19T02:45:53.101Z,0
2017-08-19T02:46:54.014Z,0
2017-08-19T02:47:53.683Z,0
2017-08-19T02:48:53.045Z,0
2017-08-19T02:49:53.969Z,0
2017-08-19T02:50:53.950Z,0
2017-08-19T02:51:53.310Z,0
2017-08-19T02:52:53.940Z,0
2017-08-19T02:53:53.914Z,0
2017-08-19T02:54:53.583Z,0
2017-08-19T02:55:52.940Z,0
2017-08-19T02:56:53.776Z,0
2017-08-19T02:57:53.222Z,0
2017-08-19T02:58:53.523Z,0
2017-08-19T02:59:53.203Z,0
2017-08-19T03:00:53.495Z,0
2017-08-19T03:01:53.791Z,0
2017-08-19T03:02:53.491Z,0
2017-08-19T03:03:53.144Z,0
2017-08-19T03:04:52.816Z,0
2017-08-19T03:05:53.106Z,0
2017-08-19T03:06:53.722Z,0
2017-08-19T03:07:52.475Z,0
2017-08-19T03:08:53.381Z,0
2017-08-19T03:09:53.378Z,0
2017-08-19T03:10:53.677Z,0
2017-08-19T03:11:53.026Z,0
2017-08-19T03:12:53.009Z,0
2017-08-19T03:13:53.301Z,0
2017-08-19T03:14:53.304Z,0
2017-08-19T03:15:53.277Z,0
2017-08-19T03:16:52.962Z,0
2017-08-19T03:17:52.625Z,0
2017-08-19T03:18:52.921Z,0
2017-08-19T03:19:52.908Z,0
2017-08-19T03:20:53.205Z,0
2017-08-19T03:21:53.188Z,0
2017-08-19T03:22:52.866Z,0
2017-08-19T03:23:53.164Z,0
2017-08-19T03:24:52.853Z,0
2017-08-19T03:25:53.142Z,0
2017-08-19T03:26:53.122Z,0
2017-08-19T03:27:53.118Z,0
2017-08-19T03:28:53.090Z,0
2017-08-19T03:29:52.758Z,0
2017-08-19T03:30:52.762Z,0
2017-08-19T03:31:53.051Z,0
2017-08-19T03:32:53.034Z,0
2017-08-19T03:33:52.393Z,0
2017-08-19T03:34:53.335Z,0
2017-08-19T03:35:52.676Z,0
2017-08-19T03:36:53.284Z,0
2017-08-19T03:37:53.276Z,0
2017-08-19T03:38:52.636Z,0
2017-08-19T03:39:52.961Z,0
2017-08-19T03:40:52.918Z,0
2017-08-19T03:41:52.904Z,0
2017-08-19T03:42:52.569Z,0
2017-08-19T03:43:52.885Z,0
2017-08-19T03:44:52.869Z,0
2017-08-19T03:45:52.535Z,0
2017-08-19T03:46:52.520Z,0
2017-08-19T03:47:52.826Z,0
2017-08-19T03:48:52.487Z,0
2017-08-19T03:49:52.989Z,0
2017-08-19T03:50:52.146Z,0
2017-08-19T03:51:52.440Z,0
2017-08-19T03:52:52.124Z,0
2017-08-19T03:53:53.073Z,0
2017-08-19T03:54:53.039Z,0
2017-08-19T03:55:52.074Z,0
2017-08-19T03:56:53.005Z,0
2017-08-19T03:57:52.675Z,0
2017-08-19T03:58:52.661Z,0
2017-08-19T03:59:52.017Z,0
2017-08-19T04:00:52.343Z,0
2017-08-19T04:01:52.632Z,0
2017-08-19T04:02:52.287Z,0
2017-08-19T04:03:52.581Z,0
2017-08-19T04:04:52.252Z,0
2017-08-19T04:05:52.239Z,0
2017-08-19T04:06:52.233Z,0
2017-08-19T04:07:52.523Z,0
2017-08-19T04:08:52.203Z,0
2017-08-19T04:09:52.809Z,0
2017-08-19T04:10:52.482Z,0
2017-08-19T04:11:52.784Z,0
2017-08-19T04:12:52.450Z,0
2017-08-19T04:13:52.441Z,0
2017-08-19T04:14:52.124Z,0
2017-08-19T04:15:52.101Z,0
2017-08-19T04:16:52.399Z,0
2017-08-19T04:17:52.381Z,0
2017-08-19T04:18:51.424Z,0
2017-08-19T04:19:52.356Z,0
2017-08-19T04:20:52.334Z,0
2017-08-19T04:21:52.013Z,0
2017-08-19T04:22:52.302Z,0
2017-08-19T04:23:52.603Z,0
2017-08-19T04:24:51.968Z,0
2017-08-19T04:25:51.957Z,0
2017-08-19T04:26:51.627Z,5
2017-08-19T04:27:51.934Z,5
2017-08-19T04:28:51.913Z,5
2017-08-19T04:29:52.208Z,5
2017-08-19T04:30:52.187Z,5
2017-08-19T04:31:51.555Z,5
2017-08-19T04:32:52.160Z,5
2017-08-19T04:33:52.142Z,5
2017-08-19T04:34:51.558Z,5
2017-08-19T04:35:52.125Z,5
2017-08-19T04:36:52.621Z,5
2017-08-19T04:37:52.405Z,10
2017-08-19T04:38:51.759Z,10
2017-08-19T04:39:51.435Z,10
2017-08-19T04:40:52.052Z,10
2017-08-19T04:41:51.720Z,10
2017-08-19T04:42:51.073Z,10
2017-08-19T04:43:52.008Z,10
2017-08-19T04:44:52.300Z,15
2017-08-19T04:45:52.373Z,15
2017-08-19T04:46:51.980Z,15
2017-08-19T04:47:51.941Z,15
2017-08-19T04:48:51.620Z,15
2017-08-19T04:49:52.228Z,15
2017-08-19T04:50:51.908Z,15
2017-08-19T04:51:51.885Z,15
2017-08-19T04:52:51.562Z,20
2017-08-19T04:53:52.180Z,20
2017-08-19T04:54:51.852Z,20
2017-08-19T04:55:51.827Z,20
2017-08-19T04:56:51.507Z,20
2017-08-19T04:57:51.802Z,20
2017-08-19T04:58:51.482Z,20
2017-08-19T04:59:51.769Z,20
2017-08-19T05:00:51.778Z,25
2017-08-19T05:01:51.743Z,25
2017-08-19T05:02:51.725Z,25
2017-08-19T05:03:51.717Z,25
2017-08-19T05:04:51.699Z,25
2017-08-19T05:05:50.750Z,25
2017-08-19T05:06:51.351Z,25
2017-08-19T05:07:51.026Z,25
2017-08-19T05:08:51.013Z,25
2017-08-19T05:09:51.314Z,30
2017-08-19T05:10:51.613Z,30
2017-08-19T05:11:51.597Z,30
2017-08-19T05:12:51.577Z,30
2017-08-19T05:13:51.268Z,30
2017-08-19T05:14:51.556Z,30
2017-08-19T05:15:51.236Z,30
2017-08-19T05:16:50.898Z,30
2017-08-19T05:17:52.537Z,30
2017-08-19T05:18:51.229Z,30
2017-08-19T05:19:51.847Z,35
2017-08-19T05:20:51.471Z,35
2017-08-19T05:21:51.809Z,35
2017-08-19T05:22:51.759Z,35
2017-08-19T05:23:51.118Z,35
2017-08-19T05:24:51.417Z,35
2017-08-19T05:25:51.397Z,35
2017-08-19T05:26:51.741Z,35
2017-08-19T05:27:51.362Z,35
2017-08-19T05:28:51.669Z,35
2017-08-19T05:29:51.034Z,40
2017-08-19T05:30:51.333Z,40
2017-08-19T05:31:51.311Z,40
2017-08-19T05:32:51.654Z,40
2017-08-19T05:33:50.656Z,40
2017-08-19T05:34:50.991Z,40
2017-08-19T05:35:51.252Z,40
2017-08-19T05:36:51.237Z,40
2017-08-19T05:37:51.236Z,40
2017-08-19T05:38:51.223Z,40
2017-08-19T05:39:51.200Z,40
2017-08-19T05:40:51.102Z,45
2017-08-19T05:41:50.860Z,45
2017-08-19T05:42:51.468Z,45
2017-08-19T05:43:51.138Z,45
2017-08-19T05:44:50.818Z,45
2017-08-19T05:45:51.133Z,45
2017-08-19T05:46:50.778Z,45
2017-08-19T05:47:51.400Z,45
2017-08-19T05:48:51.057Z,45
2017-08-19T05:49:51.266Z,45
2017-08-19T05:50:51.385Z,45
2017-08-19T05:51:50.401Z,50
2017-08-19T05:52:51.018Z,50
2017-08-19T05:53:50.371Z,50
2017-08-19T05:54:50.675Z,50
2017-08-19T05:55:51.344Z,50
2017-08-19T05:56:50.961Z,50
2017-08-19T05:57:51.260Z,50
2017-08-19T05:58:51.242Z,50
2017-08-19T05:59:50.601Z,50
2017-08-19T06:00:50.903Z,50
2017-08-19T06:01:50.926Z,50
2017-08-19T06:02:50.556Z,50
2017-08-19T06:03:50.900Z,55
2017-08-19T06:04:50.556Z,55
2017-08-19T06:05:50.830Z,55
2017-08-19T06:06:50.827Z,55
2017-08-19T06:07:50.504Z,55
2017-08-19T06:08:51.107Z,55
2017-08-19T06:09:50.173Z,55
2017-08-19T06:10:50.162Z,55
2017-08-19T06:11:50.441Z,55
2017-08-19T06:12:50.745Z,55
2017-08-19T06:13:50.713Z,55
2017-08-19T06:14:50.386Z,55
2017-08-19T06:15:51.014Z,55
2017-08-19T06:16:50.685Z,60
2017-08-19T06:17:50.357Z,55
2017-08-19T06:18:50.652Z,60
2017-08-19T06:19:50.401Z,60
2017-08-19T06:20:50.315Z,60
2017-08-19T06:21:50.611Z,60
2017-08-19T06:22:49.982Z,60
2017-08-19T06:23:50.278Z,60
2017-08-19T06:24:50.885Z,60
2017-08-19T06:25:50.563Z,60
2017-08-19T06:26:50.543Z,60
2017-08-19T06:27:50.215Z,60
2017-08-19T06:28:50.201Z,60
2017-08-19T06:29:50.186Z,60
2017-08-19T06:30:50.511Z,60
2017-08-19T06:31:50.472Z,60
2017-08-19T06:32:49.836Z,60
2017-08-19T06:33:50.751Z,60
2017-08-19T06:34:50.434Z,60
2017-08-19T06:35:50.420Z,60
2017-08-19T06:36:50.404Z,60
2017-08-19T06:37:50.701Z,65
2017-08-19T06:38:50.690Z,65
2017-08-19T06:39:50.382Z,70
2017-08-19T06:40:50.365Z,70
2017-08-19T06:41:50.025Z,75
2017-08-19T06:42:50.041Z,85
2017-08-19T06:43:49.999Z,95
2017-08-19T06:44:49.675Z,100
2017-08-19T06:45:49.965Z,105
2017-08-19T06:46:50.281Z,100
2017-08-19T06:47:50.262Z,95
2017-08-19T06:48:50.251Z,105
2017-08-19T06:49:50.230Z,105
2017-08-19T06:50:50.524Z,105
2017-08-19T06:51:49.578Z,125
2017-08-19T06:52:49.873Z,175
2017-08-19T06:53:49.868Z,220
2017-08-19T06:54:50.509Z,200
2017-08-19T06:55:49.528Z,175
2017-08-19T06:56:49.819Z,165
2017-08-19T06:57:50.435Z,165
2017-08-19T06:58:49.807Z,165
2017-08-19T06:59:49.806Z,165
2017-08-19T07:00:50.101Z,160
2017-08-19T07:01:49.797Z,155
2017-08-19T07:02:50.068Z,155
2017-08-19T07:03:50.064Z,150
2017-08-19T07:04:50.347Z,135
2017-08-19T07:05:50.039Z,130
2017-08-19T07:06:50.004Z,135
2017-08-19T07:07:49.688Z,140
2017-08-19T07:08:50.306Z,150
2017-08-19T07:09:49.978Z,155
2017-08-19T07:10:49.961Z,150
2017-08-19T07:11:49.948Z,155
2017-08-19T07:12:50.254Z,165
2017-08-19T07:13:49.614Z,155
2017-08-19T07:14:49.918Z,175
2017-08-19T07:15:50.216Z,200
2017-08-19T07:16:50.208Z,215
2017-08-19T07:17:48.961Z,225
2017-08-19T07:18:49.246Z,215
2017-08-19T07:19:49.547Z,180
2017-08-19T07:20:49.841Z,175
2017-08-19T07:21:50.190Z,180
2017-08-19T07:22:49.826Z,185
2017-08-19T07:23:49.818Z,180
2017-08-19T07:24:49.491Z,175
2017-08-19T07:25:49.479Z,170
2017-08-19T07:26:48.842Z,165
2017-08-19T07:27:49.443Z,160
2017-08-19T07:28:49.126Z,160
2017-08-19T07:29:49.429Z,165
2017-08-19T07:30:49.740Z,185
2017-08-19T07:31:49.422Z,200
2017-08-19T07:32:49.084Z,190
2017-08-19T07:33:49.852Z,165
2017-08-19T07:34:49.558Z,145
2017-08-19T07:35:49.422Z,135
2017-08-19T07:36:49.687Z,140
2017-08-19T07:37:49.727Z,145
2017-08-19T07:38:49.332Z,135
2017-08-19T07:39:49.628Z,140
2017-08-19T07:40:49.610Z,160
2017-08-19T07:41:49.598Z,160
2017-08-19T07:42:49.282Z,130
2017-08-19T07:43:49.259Z,150
2017-08-19T07:44:49.563Z,170
2017-08-19T07:45:49.243Z,190
2017-08-19T07:46:49.430Z,205
2017-08-19T07:47:49.532Z,165
2017-08-19T07:48:49.218Z,120
2017-08-19T07:49:49.395Z,125
2017-08-19T07:50:49.181Z,165
2017-08-19T07:51:49.167Z,190
2017-08-19T07:52:49.486Z,185
2017-08-19T07:53:49.485Z,165
2017-08-19T07:54:48.823Z,160
2017-08-19T07:55:49.442Z,160
2017-08-19T07:56:49.443Z,175
2017-08-19T07:57:49.137Z,180
2017-08-19T07:58:49.100Z,175
2017-08-19T07:59:49.076Z,190
2017-08-19T08:00:48.771Z,195
2017-08-19T08:01:49.405Z,190
2017-08-19T08:02:48.740Z,200
2017-08-19T08:03:48.735Z,190
2017-08-19T08:04:49.035Z,185
2017-08-19T08:05:49.328Z,205
2017-08-19T08:06:49.310Z,260
2017-08-19T08:07:49.308Z,295
2017-08-19T08:08:48.993Z,305
2017-08-19T08:09:49.282Z,320
2017-08-19T08:10:48.973Z,290
2017-08-19T08:11:49.259Z,345
2017-08-19T08:12:49.261Z,285
2017-08-19T08:13:49.244Z,315
2017-08-19T08:14:48.293Z,335
2017-08-19T08:15:48.901Z,465
2017-08-19T08:18:17.602Z,480
2017-08-19T08:19:17.906Z,305
2017-08-19T08:20:17.872Z,345
2017-08-19T08:21:18.193Z,450
2017-08-19T08:22:18.161Z,1095
2017-08-19T08:23:17.520Z,900
2017-08-19T08:24:17.822Z,290
2017-08-19T08:25:18.148Z,265
2017-08-19T09:12:40.275Z,435
2017-08-19T09:13:40.321Z,425
2017-08-19T09:14:40.624Z,350
2017-08-19T09:15:40.147Z,360
2017-08-19T09:16:40.171Z,405
2017-08-19T09:17:40.152Z,410
2017-08-19T09:18:40.418Z,250
2017-08-19T09:19:40.433Z,345
2017-08-19T09:20:40.086Z,335
2017-08-19T09:21:40.389Z,240
2017-08-19T09:22:40.690Z,260
2017-08-19T09:23:39.744Z,290
2017-08-19T09:24:40.037Z,395
2017-08-19T09:25:40.032Z,395
2017-08-19T09:26:39.717Z,365
2017-08-19T09:27:40.005Z,235
2017-08-19T09:28:40.009Z,210
2017-08-19T09:29:39.702Z,205
2017-08-19T09:30:39.994Z,230
2017-08-19T09:31:40.276Z,325
2017-08-19T09:32:40.273Z,300
2017-08-19T09:33:41.227Z,300
2017-08-19T09:34:40.253Z,270
2017-08-19T09:35:40.544Z,265
2017-08-19T09:36:40.552Z,265
2017-08-19T09:37:40.210Z,235
2017-08-19T09:38:40.207Z,320
2017-08-19T09:39:40.198Z,420
2017-08-19T09:40:40.508Z,400
2017-08-19T09:41:40.186Z,400
2017-08-19T09:42:40.158Z,395
2017-08-19T09:43:39.833Z,355
2017-08-19T09:44:39.836Z,370
2017-08-19T09:45:40.138Z,330
2017-08-19T09:46:40.125Z,340
2017-08-19T09:47:39.824Z,350
2017-08-19T09:48:40.106Z,360
2017-08-19T09:49:39.673Z,445
2017-08-19T09:50:40.090Z,425
2017-08-19T09:51:40.403Z,350
2017-08-19T09:52:39.447Z,295
2017-08-19T09:53:40.054Z,200
2017-08-19T09:54:39.752Z,185
2017-08-19T09:55:40.046Z,240
2017-08-19T09:56:39.720Z,225
2017-08-19T09:57:39.718Z,175
2017-08-19T09:58:40.014Z,140
2017-08-19T09:59:39.693Z,155
2017-08-19T10:00:39.988Z,185
2017-08-19T10:01:39.666Z,205
2017-08-19T10:02:40.022Z,250
2017-08-19T10:03:40.298Z,365
2017-08-19T10:04:39.334Z,485
2017-08-19T10:05:40.256Z,545
2017-08-19T10:06:40.253Z,475
2017-08-19T10:07:38.985Z,440
2017-08-19T10:08:39.600Z,455
2017-08-19T10:09:39.901Z,375
2017-08-19T10:10:39.269Z,385
2017-08-19T10:11:40.194Z,320
2017-08-19T10:12:39.566Z,260
2017-08-19T10:13:40.180Z,270
2017-08-19T10:14:39.545Z,375
2017-08-19T10:15:39.845Z,375
2017-08-19T10:16:39.833Z,315
2017-08-19T10:17:39.211Z,400
2017-08-19T10:18:39.819Z,355
2017-08-19T10:19:39.838Z,280
2017-08-19T10:20:39.835Z,225
2017-08-19T10:21:39.790Z,215
2017-08-19T10:22:39.159Z,245
2017-08-19T10:23:39.492Z,200
2017-08-19T10:24:39.789Z,160
2017-08-19T10:25:39.755Z,170
2017-08-19T10:26:39.486Z,160
2017-08-19T10:27:39.432Z,115
2017-08-19T10:28:39.739Z,80
2017-08-19T10:29:39.458Z,80
2017-08-19T10:30:39.708Z,80
2017-08-19T10:31:39.704Z,85
2017-08-19T10:32:39.697Z,90
2017-08-19T10:33:40.000Z,70
2017-08-19T10:34:39.698Z,45
2017-08-19T10:35:39.664Z,45
2017-08-19T10:36:39.349Z,70
2017-08-19T10:37:39.018Z,125
2017-08-19T10:38:39.327Z,120
2017-08-19T10:39:39.616Z,95
2017-08-19T10:40:39.618Z,95
2017-08-19T10:41:38.979Z,105
2017-08-19T10:42:38.979Z,170
2017-08-19T10:43:39.576Z,285
2017-08-19T10:44:39.884Z,385
2017-08-19T10:45:38.932Z,320
2017-08-19T10:46:39.246Z,350
2017-08-19T10:47:38.917Z,485
2017-08-19T10:48:39.842Z,540
2017-08-19T10:49:39.211Z,450
2017-08-19T10:50:39.711Z,365
2017-08-19T10:51:39.506Z,375
2017-08-19T10:52:39.802Z,430
2017-08-19T10:53:39.472Z,475
2017-08-19T10:54:39.784Z,475
2017-08-19T10:55:39.463Z,455
2017-08-19T10:56:39.453Z,515
2017-08-19T10:57:38.830Z,845
2017-08-19T10:58:39.132Z,615
2017-08-19T10:59:39.114Z,565
2017-08-19T11:00:39.416Z,740
2017-08-19T11:01:38.780Z,865
2017-08-19T11:02:39.390Z,660
2017-08-19T11:03:39.701Z,640
2017-08-19T11:04:38.439Z,645
2017-08-19T11:05:39.107Z,610
2017-08-19T11:06:38.754Z,715
2017-08-19T11:07:39.720Z,660
2017-08-19T11:08:39.364Z,715
2017-08-19T11:09:39.660Z,735
2017-08-19T11:10:39.330Z,710
2017-08-19T11:11:38.697Z,640
2017-08-19T11:12:39.003Z,560
2017-08-19T11:13:39.313Z,630
2017-08-19T11:14:39.307Z,705
2017-08-19T11:15:39.295Z,2040
2017-08-19T11:16:39.303Z,1870
2017-08-19T11:17:39.293Z,2050
2017-08-19T11:18:39.277Z,2020
2017-08-19T11:19:39.269Z,1350
2017-08-19T11:20:39.281Z,1970
2017-08-19T11:21:39.280Z,1950
2017-08-19T11:22:38.318Z,465
2017-08-19T11:23:39.567Z,610
2017-08-19T11:24:38.948Z,370
2017-08-19T11:25:39.256Z,490
2017-08-19T11:26:38.624Z,345
2017-08-19T11:27:38.928Z,255
2017-08-19T11:28:39.252Z,265
2017-08-19T11:29:38.605Z,265
2017-08-19T11:30:38.922Z,270
2017-08-19T11:31:39.229Z,275
2017-08-19T11:32:38.913Z,395
2017-08-19T11:33:38.935Z,2000
2017-08-19T11:34:39.203Z,710
2017-08-19T11:35:39.531Z,535
2017-08-19T11:36:39.516Z,330
2017-08-19T11:37:39.220Z,195
2017-08-19T11:38:39.195Z,105
2017-08-19T11:39:39.496Z,80
2017-08-19T11:40:39.205Z,75
2017-08-19T11:41:39.188Z,70
2017-08-19T11:42:39.175Z,50
2017-08-19T11:43:39.106Z,45
2017-08-19T11:44:39.166Z,50
2017-08-19T11:45:39.166Z,55
2017-08-19T11:46:39.463Z,55
2017-08-19T11:47:38.512Z,55
2017-08-19T11:48:38.526Z,55
2017-08-19T11:49:38.710Z,60
2017-08-19T11:50:38.866Z,65
2017-08-19T11:51:38.821Z,70
2017-08-19T11:52:39.103Z,85
2017-08-19T11:53:39.094Z,125
2017-08-19T11:54:38.180Z,190
2017-08-19T11:55:39.077Z,265
2017-08-19T11:56:38.761Z,320
2017-08-19T11:57:39.393Z,440
2017-08-19T11:58:38.573Z,1160
2017-08-19T11:59:38.736Z,1680
2017-08-19T12:00:38.728Z,605
2017-08-19T12:01:39.077Z,370
2017-08-19T12:02:38.703Z,445
2017-08-19T12:03:39.325Z,720
2017-08-19T12:04:39.310Z,2005
2017-08-19T12:05:39.036Z,1955
2017-08-19T12:06:38.693Z,1875
2017-08-19T12:07:38.369Z,1850
2017-08-19T12:08:38.973Z,1915
2017-08-19T12:09:38.661Z,1940
2017-08-19T12:10:38.648Z,2020
2017-08-19T12:11:38.645Z,1960
2017-08-19T12:12:39.309Z,1875
2017-08-19T12:13:39.256Z,1870
2017-08-19T12:14:38.370Z,1855
2017-08-19T12:15:38.636Z,1930
2017-08-19T12:16:38.635Z,1925
2017-08-19T12:17:38.958Z,1900
2017-08-19T12:18:38.303Z,1895
2017-08-19T12:19:38.305Z,1855
2017-08-19T12:20:39.240Z,1850
2017-08-19T12:21:39.238Z,1875
2017-08-19T12:22:38.622Z,1905
2017-08-19T12:23:38.934Z,1880
2017-08-19T12:24:38.930Z,1855
2017-08-19T12:25:38.922Z,1810
2017-08-19T12:26:38.928Z,1810
2017-08-19T12:27:38.974Z,1835
2017-08-19T12:28:39.136Z,1855
2017-08-19T12:29:38.928Z,1860
2017-08-19T12:30:39.244Z,1830
2017-08-19T12:31:38.939Z,1785
2017-08-19T12:32:39.254Z,1815
2017-08-19T12:33:38.930Z,1850
2017-08-19T12:34:38.703Z,1820
2017-08-19T12:35:38.634Z,605
2017-08-19T12:36:38.941Z,1205
2017-08-19T12:37:38.637Z,465
2017-08-19T12:38:38.320Z,705
2017-08-19T12:39:38.343Z,445
2017-08-19T12:40:38.969Z,405
2017-08-19T12:41:38.640Z,260
2017-08-19T12:42:38.976Z,200
2017-08-19T12:43:38.645Z,170
2017-08-19T12:44:38.954Z,145
2017-08-19T12:45:38.328Z,135
2017-08-19T12:46:39.268Z,130
2017-08-19T12:47:38.946Z,105
2017-08-19T12:48:38.679Z,105
2017-08-19T12:49:38.644Z,120
2017-08-19T12:50:39.246Z,125
2017-08-19T12:51:38.307Z,120
2017-08-19T12:52:38.615Z,115
2017-08-19T12:53:38.977Z,95
2017-08-19T12:54:37.984Z,65
2017-08-19T12:55:39.034Z,45
2017-08-19T12:56:38.676Z,35
2017-08-19T12:57:38.289Z,30
2017-08-19T12:58:39.229Z,30
2017-08-19T12:59:38.903Z,30
2017-08-19T13:00:38.593Z,40
2017-08-19T13:01:39.324Z,60
2017-08-19T13:02:38.905Z,90
2017-08-19T13:03:38.885Z,145
2017-08-19T13:04:38.874Z,195
2017-08-19T13:05:38.234Z,250
2017-08-19T13:06:39.181Z,305
2017-08-19T13:07:38.551Z,265
2017-08-19T13:08:38.534Z,245
2017-08-19T13:09:38.835Z,215
2017-08-19T13:10:38.563Z,190
2017-08-19T13:11:38.207Z,165
2017-08-19T13:12:39.148Z,140
2017-08-19T13:13:38.490Z,130
2017-08-19T13:14:38.497Z,120
2017-08-19T13:15:39.309Z,110
2017-08-19T13:16:38.468Z,100
2017-08-19T13:17:38.619Z,95
2017-08-19T13:18:38.467Z,100
2017-08-19T13:19:38.441Z,100
2017-08-19T13:20:38.749Z,95
2017-08-19T13:21:38.418Z,95
2017-08-19T13:22:39.048Z,100
2017-08-19T13:23:38.776Z,100
2017-08-19T13:24:38.208Z,100
2017-08-19T13:25:38.705Z,110
2017-08-19T13:26:39.162Z,165
2017-08-19T13:27:38.376Z,920
2017-08-19T13:28:38.049Z,225
2017-08-19T13:29:38.424Z,230
2017-08-19T13:30:38.969Z,205
2017-08-19T13:31:38.649Z,200
2017-08-19T13:32:38.036Z,265
2017-08-19T13:33:38.628Z,1295
2017-08-19T13:34:38.007Z,1290
2017-08-19T13:35:38.619Z,1575
2017-08-19T13:36:38.604Z,235
2017-08-19T13:37:38.603Z,730
2017-08-19T13:38:37.973Z,180
2017-08-19T13:39:38.589Z,130
2017-08-19T13:40:38.025Z,100
2017-08-19T13:41:38.259Z,90
2017-08-19T13:42:38.917Z,95
2017-08-19T13:43:38.505Z,120
2017-08-19T13:44:38.244Z,165
2017-08-19T13:45:37.644Z,225
2017-08-19T13:46:38.536Z,550
2017-08-19T13:47:38.216Z,400
2017-08-19T13:48:38.209Z,610
2017-08-19T13:49:38.470Z,1630
2017-08-19T13:50:38.501Z,1605
2017-08-19T13:51:38.184Z,1520
2017-08-19T13:52:38.194Z,450
2017-08-19T13:53:38.175Z,285
2017-08-19T13:54:38.178Z,380
2017-08-19T13:55:38.168Z,275
2017-08-19T13:56:37.875Z,205
2017-08-19T13:57:38.532Z,155
2017-08-19T13:58:38.465Z,125
2017-08-19T13:59:38.143Z,110
2017-08-19T14:00:38.133Z,95
2017-08-19T14:01:38.331Z,70
2017-08-19T14:02:38.443Z,60
2017-08-19T14:03:38.122Z,60
2017-08-19T14:04:37.819Z,65
2017-08-19T14:05:38.417Z,70
2017-08-19T14:06:38.123Z,80
2017-08-19T14:07:38.408Z,100
2017-08-19T14:08:38.400Z,115
2017-08-19T14:09:38.077Z,115
2017-08-19T14:10:38.271Z,100
2017-08-19T14:11:38.661Z,85
2017-08-19T14:12:38.404Z,65
2017-08-19T14:13:37.759Z,50
2017-08-19T14:14:38.359Z,45
2017-08-19T14:15:38.360Z,40
2017-08-19T14:16:38.666Z,35
2017-08-19T14:17:38.561Z,35
2017-08-19T14:18:38.330Z,35
2017-08-19T14:19:38.002Z,40
2017-08-19T14:20:38.004Z,55
2017-08-19T14:21:38.017Z,65
2017-08-19T14:22:38.299Z,90
2017-08-19T14:23:38.301Z,110
2017-08-19T14:24:38.606Z,145
2017-08-19T14:25:37.959Z,175
2017-08-19T14:26:38.278Z,195
2017-08-19T14:27:38.311Z,195
2017-08-19T14:28:37.941Z,185
2017-08-19T14:29:38.568Z,165
2017-08-19T14:30:38.242Z,145
2017-08-19T14:31:37.908Z,140
2017-08-19T14:32:38.219Z,135
2017-08-19T14:33:38.204Z,130
2017-08-19T14:34:37.960Z,130
2017-08-19T14:35:37.870Z,125
2017-08-19T14:36:37.548Z,120
2017-08-19T14:37:38.166Z,115
2017-08-19T14:38:37.535Z,115
2017-08-19T14:39:38.234Z,110
2017-08-19T14:40:38.153Z,110
2017-08-19T14:41:38.143Z,105
2017-08-19T14:42:37.828Z,100
2017-08-19T14:43:37.173Z,95
2017-08-19T14:44:37.479Z,90
2017-08-19T14:45:37.776Z,90
2017-08-19T14:46:38.097Z,90
2017-08-19T14:47:37.766Z,90
2017-08-19T14:48:37.536Z,95
2017-08-19T14:49:38.065Z,95
2017-08-19T14:50:38.051Z,95
2017-08-19T14:51:37.728Z,100
2017-08-19T14:52:37.712Z,105
2017-08-19T14:53:38.025Z,115
2017-08-19T14:54:37.709Z,125
2017-08-19T14:55:38.048Z,145
2017-08-19T14:56:37.684Z,185
2017-08-19T14:57:37.677Z,835
2017-08-19T14:58:37.973Z,865